West St. Catharines

*Note: All times are displayed in the local standard time of the station location.
**Rain - Equipment is designed to accurately record liquid precipitation; under conditions when precipitation is not in liquid form, the data displayed may not properly reflect rainfall values.

Date Max Temp
(°C)
Min Temp
(°C)
Avg Temp
(°C)
Rain (mm) Avg RH (%) Solar Rad (kJ/m2)
Sat, Feb 17, 2018 -0.7 -7.2 -3.1 0.0 86.1 4486.4
Fri, Feb 16, 2018 4.1 -6.6 -0.2 0.0 90.5 6902.7
Thu, Feb 15, 2018 8.6 3.3 6.1 0.6 100.0 5100.1
Wed, Feb 14, 2018 5.2 -4.3 2.7 5.8 90.5 9885.9
Tue, Feb 13, 2018 -0.5 -14.7 -7.4 0.4 88.4 8707.4
Mon, Feb 12, 2018 -1.3 -10.8 -4.7 0.2 85.6 9630.0
Sun, Feb 11, 2018 1.1 -3.6 -1.6 5.6 99.8 3684.8
DateTime Avg Temp (°C) Rain (mm) RH (%) Solar Rad (kJ/m2)
Sun, Feb 18, 2018 04:00 -2.2 0.0 100.0 1.0
Sun, Feb 18, 2018 03:00 -1.8 0.0 100.0 1.2
Sun, Feb 18, 2018 02:00 -1.8 0.0 100.0 0.4
Sun, Feb 18, 2018 01:00 -1.8 0.0 100.0 0.0
Sun, Feb 18, 2018 00:00 -1.6 0.0 100.0 0.4
Sat, Feb 17, 2018 23:00 -1.4 0.0 95.3 0.8
Sat, Feb 17, 2018 22:00 -1.4 0.0 86.5 0.0
Sat, Feb 17, 2018 21:00 -1.8 0.0 85.3 0.8
Sat, Feb 17, 2018 20:00 -1.8 0.0 84.8 0.4
Sat, Feb 17, 2018 19:00 -1.6 0.0 78.8 0.0
Sat, Feb 17, 2018 18:00 -1.4 0.0 73.5 36.0
Sat, Feb 17, 2018 17:00 -1.1 0.0 70.0 110.0
Sat, Feb 17, 2018 16:00 -1.0 0.0 73.0 198.3
Sat, Feb 17, 2018 15:00 -0.8 0.0 71.5 396.8
Sat, Feb 17, 2018 14:00 -0.8 0.0 73.5 581.3
Sat, Feb 17, 2018 13:00 -1.0 0.0 73.5 650.4
Sat, Feb 17, 2018 12:00 -1.0 0.0 75.0 746.6
Sat, Feb 17, 2018 11:00 -1.4 0.0 77.3 714.0
Sat, Feb 17, 2018 10:00 -2.5 0.0 81.8 584.9
Sat, Feb 17, 2018 09:00 -4.1 0.0 88.3 386.6
Sat, Feb 17, 2018 08:00 -5.9 0.0 95.3 75.5
Sat, Feb 17, 2018 07:00 -6.2 0.0 96.8 0.4
Sat, Feb 17, 2018 06:00 -6.1 0.0 96.8 0.4
Sat, Feb 17, 2018 05:00 -6.0 0.0 98.5 0.8
Sat, Feb 17, 2018 04:00 -6.2 0.0 98.8 0.0
Sat, Feb 17, 2018 03:00 -6.9 0.0 99.0 1.2
Sat, Feb 17, 2018 02:00 -7.1 0.0 98.3 0.0
Sat, Feb 17, 2018 01:00 -6.7 0.0 95.3 0.8
Sat, Feb 17, 2018 00:00 -6.5 0.0 96.3 0.8
Fri, Feb 16, 2018 23:00 -6.1 0.0 94.3 1.2
Fri, Feb 16, 2018 22:00 -5.0 0.0 88.5 0.4
Fri, Feb 16, 2018 21:00 -4.2 0.0 81.3 0.4
Fri, Feb 16, 2018 20:00 -3.6 0.0 79.0 0.0
Fri, Feb 16, 2018 19:00 -3.2 0.0 76.0 0.4
Fri, Feb 16, 2018 18:00 -2.5 0.0 74.5 67.2
Fri, Feb 16, 2018 17:00 -1.2 0.0 76.0 296.7
Fri, Feb 16, 2018 16:00 0.0 0.0 77.3 832.2
Fri, Feb 16, 2018 15:00 1.2 0.0 75.5 1400.8
Fri, Feb 16, 2018 14:00 1.5 0.0 78.3 1535.4
Fri, Feb 16, 2018 13:00 1.9 0.0 82.3 1453.4
Fri, Feb 16, 2018 12:00 1.7 0.0 92.5 730.1
Fri, Feb 16, 2018 11:00 1.4 0.0 100.0 211.1
Fri, Feb 16, 2018 10:00 1.4 0.0 100.0 302.1
Fri, Feb 16, 2018 09:00 1.1 0.0 100.0 58.3
Fri, Feb 16, 2018 08:00 1.3 0.0 100.0 9.0
Fri, Feb 16, 2018 07:00 1.8 0.0 100.0 0.0
Fri, Feb 16, 2018 06:00 1.6 0.0 100.0 0.4
Fri, Feb 16, 2018 05:00 1.3 0.0 100.0 0.0


asterix Register now to access more data! asterix